createdAt,value
2018-09-30T00:00:32.912Z,97504.64
2018-09-30T00:03:00.097Z,97497.05
2018-09-30T00:05:27.278Z,97493.72
2018-09-30T00:07:54.486Z,97492.70
2018-09-30T00:10:21.655Z,97486.31
2018-09-30T00:12:48.951Z,97495.20
2018-09-30T00:15:16.109Z,97490.31
2018-09-30T00:17:43.324Z,97490.89
2018-09-30T00:20:10.488Z,97487.28
2018-09-30T00:22:37.673Z,97481.11
2018-09-30T00:25:10.576Z,97487.44
2018-09-30T00:27:37.751Z,97488.61
2018-09-30T00:30:05.195Z,97490.16
2018-09-30T00:32:32.394Z,97487.53
2018-09-30T00:34:59.496Z,97492.73
2018-09-30T00:37:26.680Z,97487.27
2018-09-30T00:39:53.833Z,97483.63
2018-09-30T00:42:21.016Z,97476.44
2018-09-30T00:44:48.150Z,97473.31
2018-09-30T00:47:15.372Z,97465.89
2018-09-30T00:49:42.496Z,97459.84
2018-09-30T00:52:09.693Z,97459.06
2018-09-30T00:54:36.903Z,97456.10
2018-09-30T00:57:04.080Z,97458.73
2018-09-30T00:59:31.304Z,97449.95
2018-09-30T01:01:58.512Z,97449.20
2018-09-30T01:04:25.797Z,97452.86
2018-09-30T01:06:52.992Z,97458.87
2018-09-30T01:09:20.286Z,97456.43
2018-09-30T01:11:47.404Z,97461.20
2018-09-30T01:14:14.560Z,97456.77
2018-09-30T01:16:41.796Z,97465.52
2018-09-30T01:19:08.960Z,97453.16
2018-09-30T01:21:36.168Z,97449.78
2018-09-30T01:24:03.393Z,97451.33
2018-09-30T01:26:30.628Z,97270.95
2018-09-30T01:28:57.791Z,97449.53
2018-09-30T01:31:24.975Z,97442.64
2018-09-30T01:33:52.160Z,97447.53
2018-09-30T01:36:19.324Z,97449.16
2018-09-30T01:38:46.460Z,97451.94
2018-09-30T01:41:13.664Z,97449.61
2018-09-30T01:43:40.851Z,97447.61
2018-09-30T01:46:08.072Z,97451.28
2018-09-30T01:48:35.219Z,97452.97
2018-09-30T01:51:02.373Z,97458.14
2018-09-30T01:53:29.511Z,97454.83
2018-09-30T01:55:56.720Z,97452.30
2018-09-30T01:58:23.921Z,97451.42
2018-09-30T02:00:51.124Z,97451.08
2018-09-30T02:03:18.308Z,97440.41
2018-09-30T02:05:45.562Z,97439.22
2018-09-30T02:08:12.701Z,97438.11
2018-09-30T02:10:39.961Z,97429.55
2018-09-30T02:13:07.127Z,97421.96
2018-09-30T02:15:34.295Z,97423.82
2018-09-30T02:18:01.493Z,97426.56
2018-09-30T02:20:28.681Z,97425.90
2018-09-30T02:22:55.898Z,97427.70
2018-09-30T02:25:23.045Z,97425.76
2018-09-30T02:27:50.275Z,97422.50
2018-09-30T02:30:17.437Z,97424.32
2018-09-30T02:32:44.636Z,97425.06
2018-09-30T02:35:11.836Z,97423.22
2018-09-30T02:37:38.967Z,97412.69
2018-09-30T02:40:06.123Z,97410.06
2018-09-30T02:42:33.327Z,97410.77
2018-09-30T02:45:00.460Z,97412.06
2018-09-30T02:47:27.657Z,97407.60
2018-09-30T02:49:54.837Z,97404.57
2018-09-30T02:52:22.058Z,97401.83
2018-09-30T02:54:49.235Z,97393.77
2018-09-30T02:57:16.440Z,97396.49
2018-09-30T02:59:43.589Z,97393.98
2018-09-30T03:02:10.801Z,97394.08
2018-09-30T03:04:37.971Z,97393.26
2018-09-30T03:07:10.956Z,97385.25
2018-09-30T03:09:39.233Z,97386.20
2018-09-30T03:12:06.413Z,97381.75
2018-09-30T03:14:33.612Z,97379.54
2018-09-30T03:17:00.809Z,97378.81
2018-09-30T03:19:27.945Z,97378.17
2018-09-30T03:21:55.139Z,97378.75
2018-09-30T03:24:22.313Z,97370.70
2018-09-30T03:26:49.519Z,97369.02
2018-09-30T03:29:16.768Z,97368.60
2018-09-30T03:31:43.975Z,97368.36
2018-09-30T03:34:11.096Z,97355.23
2018-09-30T03:36:38.359Z,97354.29
2018-09-30T03:39:07.044Z,97350.05
2018-09-30T03:41:34.216Z,97351.44
2018-09-30T03:44:01.397Z,97340.50
2018-09-30T03:46:28.583Z,97348.91
2018-09-30T03:48:55.742Z,97345.63
2018-09-30T03:51:22.892Z,97343.81
2018-09-30T03:53:50.030Z,97343.39
2018-09-30T03:56:17.214Z,97345.98
2018-09-30T03:58:44.335Z,97344.62
2018-09-30T04:01:11.688Z,97346.18
2018-09-30T04:03:38.815Z,97348.29
2018-09-30T04:06:06.026Z,97346.91
2018-09-30T04:08:33.224Z,97332.84
2018-09-30T04:11:00.372Z,97332.87
2018-09-30T04:13:27.609Z,97329.33
2018-09-30T04:15:54.768Z,97329.80
2018-09-30T04:18:21.905Z,97324.98
2018-09-30T04:20:49.044Z,97322.38
2018-09-30T04:23:16.220Z,97318.78
2018-09-30T04:25:43.332Z,97317.16
2018-09-30T04:28:10.484Z,97313.28
2018-09-30T04:30:37.691Z,97309.52
2018-09-30T04:33:04.955Z,97299.39
2018-09-30T04:35:32.024Z,97304.50
2018-09-30T04:37:59.224Z,97297.74
2018-09-30T04:40:26.384Z,97301.78
2018-09-30T04:42:53.615Z,97300.94
2018-09-30T04:45:20.760Z,97294.84
2018-09-30T04:47:47.928Z,97297.60
2018-09-30T04:50:15.092Z,97305.02
2018-09-30T04:52:42.295Z,97302.24
2018-09-30T04:55:09.456Z,97298.45
2018-09-30T04:57:36.700Z,97292.84
2018-09-30T05:00:04.332Z,97292.83
2018-09-30T05:02:31.452Z,97292.33
2018-09-30T05:04:58.695Z,97290.17
2018-09-30T05:07:25.860Z,97286.00
2018-09-30T05:09:53.085Z,97285.62
2018-09-30T05:12:20.276Z,97287.66
2018-09-30T05:14:47.478Z,97294.77
2018-09-30T05:17:14.674Z,97290.45
2018-09-30T05:19:41.867Z,97290.94
2018-09-30T05:22:09.000Z,97296.69
2018-09-30T05:24:36.182Z,97290.72
2018-09-30T05:27:03.332Z,97291.00
2018-09-30T05:29:30.510Z,97293.63
2018-09-30T05:31:57.694Z,97298.56
2018-09-30T05:34:24.918Z,97290.37
2018-09-30T05:36:52.164Z,97294.48
2018-09-30T05:39:19.300Z,97293.72
2018-09-30T05:41:46.483Z,97295.02
2018-09-30T05:44:13.629Z,97294.55
2018-09-30T05:46:40.832Z,97290.81
2018-09-30T05:49:08.390Z,97287.95
2018-09-30T05:51:35.536Z,97287.35
2018-09-30T05:54:02.693Z,97283.20
2018-09-30T05:56:29.895Z,97287.17
2018-09-30T05:58:57.051Z,97283.02
2018-09-30T06:01:24.165Z,97280.54
2018-09-30T06:03:51.413Z,97279.68
2018-09-30T06:06:18.593Z,97284.16
2018-09-30T06:08:45.789Z,97292.06
2018-09-30T06:11:12.944Z,97285.92
2018-09-30T06:13:40.175Z,97294.11
2018-09-30T06:16:07.365Z,97289.68
2018-09-30T06:18:34.444Z,97288.44
2018-09-30T06:21:01.684Z,97293.91
2018-09-30T06:23:28.900Z,97284.88
2018-09-30T06:25:56.078Z,97290.06
2018-09-30T06:28:23.380Z,97292.28
2018-09-30T06:30:50.542Z,97290.11
2018-09-30T06:33:17.796Z,97287.73
2018-09-30T06:35:44.980Z,97285.42
2018-09-30T06:38:12.131Z,97282.97
2018-09-30T06:40:39.307Z,97286.75
2018-09-30T06:43:06.523Z,97287.22
2018-09-30T06:45:33.704Z,97280.18
2018-09-30T06:48:01.427Z,97286.56
2018-09-30T06:50:28.694Z,97279.56
2018-09-30T06:52:55.820Z,97273.08
2018-09-30T06:55:22.953Z,97272.59
2018-09-30T06:57:50.208Z,97278.66
2018-09-30T07:00:17.400Z,97277.10
2018-09-30T07:02:44.544Z,97269.52
2018-09-30T07:05:11.744Z,97268.46
2018-09-30T07:07:38.865Z,97265.84
2018-09-30T07:10:06.161Z,97262.67
2018-09-30T07:12:33.319Z,97260.80
2018-09-30T07:15:00.551Z,97262.72
2018-09-30T07:17:27.732Z,97255.02
2018-09-30T07:19:54.940Z,97251.79
2018-09-30T07:22:22.268Z,97243.88
2018-09-30T07:24:49.438Z,97243.03
2018-09-30T07:27:16.594Z,97236.70
2018-09-30T07:29:43.848Z,97231.64
2018-09-30T07:32:11.083Z,97230.38
2018-09-30T07:34:38.221Z,97223.25
2018-09-30T07:37:05.372Z,97224.08
2018-09-30T07:39:32.628Z,97226.21
2018-09-30T07:41:59.688Z,97229.13
2018-09-30T07:44:26.848Z,97222.62
2018-09-30T07:46:54.169Z,97225.05
2018-09-30T07:49:21.241Z,97230.69
2018-09-30T07:51:48.465Z,97231.09
2018-09-30T07:54:15.663Z,97228.48
2018-09-30T07:56:42.805Z,97228.75
2018-09-30T07:59:09.999Z,97223.62
2018-09-30T08:01:37.244Z,97219.20
2018-09-30T08:04:04.377Z,97212.05
2018-09-30T08:06:31.769Z,97225.59
2018-09-30T08:08:59.177Z,97224.13
2018-09-30T08:11:26.331Z,97211.91
2018-09-30T08:13:53.497Z,97209.48
2018-09-30T08:16:20.677Z,97206.27
2018-09-30T08:18:47.812Z,97204.03
2018-09-30T08:21:14.950Z,97201.06
2018-09-30T08:23:42.115Z,97193.97
2018-09-30T08:26:09.381Z,97196.00
2018-09-30T08:28:36.509Z,97122.52
2018-09-30T08:31:03.728Z,97203.36
2018-09-30T08:33:30.892Z,97197.66
2018-09-30T08:36:03.916Z,97200.60
2018-09-30T08:38:32.394Z,97193.59
2018-09-30T08:41:05.977Z,97196.07
2018-09-30T08:43:34.536Z,97196.37
2018-09-30T08:46:01.717Z,97192.82
2018-09-30T08:48:28.908Z,97195.92
2018-09-30T08:50:56.358Z,97192.11
2018-09-30T08:53:23.889Z,97193.41
2018-09-30T08:55:51.325Z,97189.23
2018-09-30T08:58:18.520Z,97190.05
2018-09-30T09:00:45.688Z,97186.71
2018-09-30T09:03:12.889Z,97174.28
2018-09-30T09:05:40.025Z,97179.61
2018-09-30T09:08:07.176Z,97180.47
2018-09-30T09:10:34.351Z,97175.02
2018-09-30T09:13:01.484Z,97169.06
2018-09-30T09:15:28.668Z,97168.08
2018-09-30T09:17:55.800Z,97173.09
2018-09-30T09:20:22.984Z,97170.00
2018-09-30T09:22:50.224Z,97166.11
2018-09-30T09:25:17.462Z,97161.19
2018-09-30T09:27:44.668Z,97152.48
2018-09-30T09:30:11.813Z,97150.06
2018-09-30T09:32:39.076Z,97156.13
2018-09-30T09:35:08.053Z,97149.81
2018-09-30T09:37:36.468Z,97150.91
2018-09-30T09:52:58.912Z,97146.84
2018-09-30T09:55:26.106Z,97112.26
2018-09-30T09:57:53.373Z,97099.67
2018-09-30T10:00:26.149Z,97099.16
2018-09-30T10:02:53.337Z,97096.42
2018-09-30T10:05:20.537Z,97088.91
2018-09-30T10:07:47.736Z,97087.42
2018-09-30T10:10:14.936Z,97075.64
2018-09-30T10:12:42.093Z,97064.70
2018-09-30T10:15:09.403Z,97068.78
2018-09-30T10:17:36.585Z,97074.86
2018-09-30T10:20:04.957Z,97066.41
2018-09-30T10:22:32.164Z,97065.61
2018-09-30T10:24:59.361Z,97067.13
2018-09-30T10:27:26.615Z,97057.03
2018-09-30T10:29:53.824Z,97048.39
2018-09-30T10:32:21.025Z,97050.11
2018-09-30T10:34:48.239Z,97041.25
2018-09-30T10:37:15.363Z,97046.17
2018-09-30T10:39:42.497Z,97041.19
2018-09-30T10:42:09.651Z,97035.81
2018-09-30T10:44:36.890Z,97024.84
2018-09-30T10:47:04.160Z,97025.78
2018-09-30T10:49:31.384Z,97017.25
2018-09-30T10:51:58.570Z,97019.14
2018-09-30T10:54:25.756Z,97015.28
2018-09-30T10:56:53.050Z,97007.38
2018-09-30T10:59:20.220Z,96996.75
2018-09-30T11:01:47.418Z,96992.42
2018-09-30T11:04:14.613Z,96993.88
2018-09-30T11:06:41.826Z,96984.14
2018-09-30T11:09:08.956Z,96981.25
2018-09-30T11:11:36.116Z,96969.82
2018-09-30T11:14:03.564Z,96970.83
2018-09-30T11:16:30.826Z,96963.36
2018-09-30T11:18:57.988Z,96966.34
2018-09-30T11:21:25.257Z,96954.03
2018-09-30T11:23:52.444Z,96945.09
2018-09-30T11:26:19.615Z,96940.41
2018-09-30T11:28:46.793Z,96931.64
2018-09-30T11:31:13.978Z,96936.27
2018-09-30T11:33:41.199Z,96932.13
2018-09-30T11:36:08.373Z,96929.98
2018-09-30T11:38:35.540Z,96912.64
2018-09-30T11:41:02.807Z,96907.81
2018-09-30T11:43:30.004Z,96907.17
2018-09-30T11:45:57.161Z,96910.07
2018-09-30T11:48:31.047Z,96905.58
2018-09-30T11:50:58.255Z,96906.53
2018-09-30T11:53:25.449Z,96895.09
2018-09-30T11:55:53.227Z,96896.68
2018-09-30T11:58:20.407Z,96888.55
2018-09-30T12:00:47.604Z,96879.20
2018-09-30T12:03:14.837Z,96876.34
2018-09-30T12:05:42.050Z,96878.38
2018-09-30T12:08:09.279Z,96870.88
2018-09-30T12:10:36.384Z,96872.18
2018-09-30T12:13:03.547Z,96867.39
2018-09-30T12:15:30.730Z,96860.98
2018-09-30T12:17:57.859Z,96855.63
2018-09-30T12:20:25.069Z,96853.36
2018-09-30T12:22:52.373Z,96847.18
2018-09-30T12:25:19.534Z,96845.37
2018-09-30T12:27:46.676Z,96841.02
2018-09-30T12:30:13.848Z,96835.05
2018-09-30T12:32:41.020Z,96838.67
2018-09-30T12:35:08.225Z,96825.19
2018-09-30T12:37:35.409Z,96826.63
2018-09-30T12:40:03.416Z,96829.05
2018-09-30T12:42:30.580Z,96833.92
2018-09-30T12:44:57.768Z,96827.05
2018-09-30T12:47:25.227Z,96815.27
2018-09-30T12:49:52.395Z,96820.34
2018-09-30T12:52:19.581Z,96814.95
2018-09-30T12:54:47.273Z,96817.47
2018-09-30T12:57:14.562Z,96815.22
2018-09-30T12:59:41.818Z,96810.28
2018-09-30T13:02:09.051Z,96812.31
2018-09-30T13:04:36.367Z,96819.20
2018-09-30T13:07:03.639Z,96810.30
2018-09-30T13:09:30.964Z,96808.47
2018-09-30T13:11:58.180Z,96809.47
2018-09-30T13:14:25.703Z,96801.25
2018-09-30T13:16:52.928Z,96795.41
2018-09-30T13:19:20.185Z,96788.73
2018-09-30T13:21:47.549Z,96788.12
2018-09-30T13:24:14.897Z,96783.15
2018-09-30T13:26:42.203Z,96777.70
2018-09-30T13:29:09.552Z,96780.92
2018-09-30T13:31:36.766Z,96775.55
2018-09-30T13:34:04.096Z,96777.68
2018-09-30T13:36:31.312Z,96775.58
2018-09-30T13:38:58.580Z,96777.94
2018-09-30T13:41:25.895Z,96776.00
2018-09-30T13:43:53.256Z,96768.50
2018-09-30T13:46:20.449Z,96766.57
2018-09-30T13:48:47.689Z,96752.41
2018-09-30T13:51:15.142Z,96750.66
2018-09-30T13:53:42.595Z,96754.00
2018-09-30T13:56:09.932Z,96750.00
2018-09-30T13:58:37.226Z,96742.40
2018-09-30T14:01:04.496Z,96745.16
2018-09-30T14:03:31.818Z,96745.29
2018-09-30T14:05:59.137Z,96738.55
2018-09-30T14:08:26.402Z,96740.49
2018-09-30T14:10:53.743Z,96742.56
2018-09-30T14:13:20.999Z,96732.39
2018-09-30T14:15:48.266Z,96727.62
2018-09-30T14:18:15.516Z,96728.16
2018-09-30T14:20:42.842Z,96733.75
2018-09-30T14:23:10.171Z,96728.21
2018-09-30T14:25:37.440Z,96727.64
2018-09-30T14:28:04.840Z,96723.75
2018-09-30T14:30:32.060Z,96719.67
2018-09-30T14:32:59.280Z,96711.97
2018-09-30T14:35:26.498Z,96711.44
2018-09-30T14:37:53.770Z,96707.72
2018-09-30T14:40:21.014Z,96704.48
2018-09-30T14:42:48.164Z,96700.94
2018-09-30T14:45:15.426Z,96708.04
2018-09-30T14:47:42.684Z,96705.52
2018-09-30T14:50:09.992Z,96702.11
2018-09-30T14:52:37.292Z,96700.14
2018-09-30T14:55:04.741Z,96698.79
2018-09-30T14:57:32.024Z,96700.45
2018-09-30T14:59:59.288Z,96691.78
2018-09-30T15:02:26.536Z,96693.77
2018-09-30T15:04:53.833Z,96691.25
2018-09-30T15:07:21.088Z,96686.84
2018-09-30T15:09:48.385Z,96691.06
2018-09-30T15:12:15.696Z,96691.24
2018-09-30T15:14:42.987Z,96683.94
2018-09-30T15:17:10.409Z,96675.94
2018-09-30T15:19:37.823Z,96675.59
2018-09-30T15:22:05.554Z,96683.77
2018-09-30T15:24:33.181Z,96682.08
2018-09-30T15:27:00.488Z,96684.02
2018-09-30T15:29:27.879Z,96679.11
2018-09-30T15:31:55.277Z,96677.84
2018-09-30T15:34:22.512Z,96676.20
2018-09-30T15:36:49.704Z,96676.74
2018-09-30T15:39:16.977Z,96676.90
2018-09-30T15:41:44.369Z,96667.42
2018-09-30T15:44:12.202Z,96668.63
2018-09-30T15:46:39.821Z,96664.77
2018-09-30T15:49:07.449Z,96663.85
2018-09-30T15:51:34.654Z,96666.16
2018-09-30T15:54:02.087Z,96662.86
2018-09-30T15:56:29.334Z,96662.30
2018-09-30T15:58:56.556Z,96663.89
2018-09-30T16:01:23.746Z,96658.30
2018-09-30T16:03:50.955Z,96656.59
2018-09-30T16:06:18.128Z,96653.95
2018-09-30T16:08:45.306Z,96650.83
2018-09-30T16:11:12.527Z,96652.88
2018-09-30T16:13:39.966Z,96655.05
2018-09-30T16:16:08.156Z,96648.68
2018-09-30T16:18:35.347Z,96647.25
2018-09-30T16:21:02.584Z,96648.22
2018-09-30T16:23:29.832Z,96648.95
2018-09-30T16:25:57.163Z,96645.74
2018-09-30T16:28:24.735Z,96650.11
2018-09-30T16:30:51.983Z,96650.76
2018-09-30T16:33:19.174Z,96651.96
2018-09-30T16:35:46.656Z,96646.48
2018-09-30T16:38:14.378Z,96648.63
2018-09-30T16:40:41.869Z,96649.60
2018-09-30T16:43:09.056Z,96650.16
2018-09-30T16:45:36.270Z,96649.27
2018-09-30T16:48:03.466Z,96652.75
2018-09-30T16:50:30.730Z,96650.67
2018-09-30T16:52:57.922Z,96654.39
2018-09-30T16:55:25.276Z,96652.37
2018-09-30T16:57:52.496Z,96649.14
2018-09-30T17:00:27.113Z,96651.48
2018-09-30T17:02:54.391Z,96650.97
2018-09-30T17:05:21.617Z,96651.44
2018-09-30T17:07:48.791Z,96652.81
2018-09-30T17:10:15.994Z,96653.27
2018-09-30T17:12:43.198Z,96654.34
2018-09-30T17:15:10.407Z,96663.39
2018-09-30T17:17:37.684Z,96662.97
2018-09-30T17:20:13.491Z,96663.95
2018-09-30T17:22:41.091Z,96660.47
2018-09-30T17:25:08.469Z,96662.66
2018-09-30T17:27:35.709Z,96664.29
2018-09-30T17:30:03.277Z,96664.64
2018-09-30T17:32:30.520Z,96672.36
2018-09-30T17:34:57.822Z,96664.86
2018-09-30T17:37:25.117Z,96670.16
2018-09-30T17:39:52.663Z,96664.95
2018-09-30T17:42:19.938Z,96665.95
2018-09-30T17:44:47.165Z,96671.91
2018-09-30T17:47:14.378Z,96664.56
2018-09-30T17:49:41.844Z,96658.73
2018-09-30T17:52:09.099Z,96657.19
2018-09-30T17:54:36.342Z,96658.64
2018-09-30T17:57:03.636Z,96653.21
2018-09-30T17:59:30.926Z,96652.92
2018-09-30T18:01:58.167Z,96652.09
2018-09-30T18:04:25.486Z,96654.14
2018-09-30T18:06:52.734Z,96649.20
2018-09-30T18:09:19.933Z,96647.46
2018-09-30T18:11:47.233Z,96644.14
2018-09-30T18:14:14.484Z,96642.11
2018-09-30T18:16:41.738Z,96648.23
2018-09-30T18:19:09.040Z,96644.96
2018-09-30T18:21:36.299Z,96646.52
2018-09-30T18:24:03.617Z,96643.14
2018-09-30T18:26:30.892Z,96638.53
2018-09-30T18:28:58.157Z,96642.91
2018-09-30T18:31:25.365Z,96636.53
2018-09-30T18:33:52.564Z,96638.28
2018-09-30T18:36:19.781Z,96645.50
2018-09-30T18:38:46.977Z,96627.88
2018-09-30T18:41:14.221Z,96630.13
2018-09-30T18:43:41.378Z,96625.37
2018-09-30T18:46:08.628Z,96627.16
2018-09-30T18:48:36.680Z,96617.67
2018-09-30T18:51:04.066Z,96620.67
2018-09-30T18:53:31.464Z,96620.77
2018-09-30T18:55:58.742Z,96618.16
2018-09-30T18:58:25.920Z,96619.55
2018-09-30T19:00:53.173Z,96618.67
2018-09-30T19:03:20.440Z,96618.28
2018-09-30T19:05:47.657Z,96617.88
2018-09-30T19:08:14.895Z,96616.80
2018-09-30T19:10:42.171Z,96622.40
2018-09-30T19:13:09.386Z,96618.19
2018-09-30T19:15:36.658Z,96611.57
2018-09-30T19:18:03.868Z,96606.06
2018-09-30T19:20:31.089Z,96601.94
2018-09-30T19:22:58.347Z,96603.56
2018-09-30T19:25:25.445Z,96602.77
2018-09-30T19:27:52.689Z,96596.22
2018-09-30T19:30:19.960Z,96589.11
2018-09-30T19:32:47.215Z,96586.65
2018-09-30T19:35:14.432Z,96589.41
2018-09-30T19:37:41.696Z,96580.66
2018-09-30T19:40:08.932Z,96589.95
2018-09-30T19:42:36.310Z,96591.34
2018-09-30T19:45:04.341Z,96577.77
2018-09-30T19:47:32.413Z,96579.95
2018-09-30T19:49:59.644Z,96586.94
2018-09-30T19:52:26.865Z,96580.19
2018-09-30T19:54:54.067Z,96571.45
2018-09-30T19:57:21.291Z,96571.60
2018-09-30T19:59:48.465Z,96565.78
2018-09-30T20:02:15.712Z,96563.06
2018-09-30T20:04:42.896Z,96566.16
2018-09-30T20:07:10.071Z,96555.28
2018-09-30T20:09:37.370Z,96563.27
2018-09-30T20:12:04.541Z,96553.17
2018-09-30T20:14:31.793Z,96551.41
2018-09-30T20:16:59.090Z,96553.55
2018-09-30T20:19:26.277Z,96552.37
2018-09-30T20:21:53.473Z,96551.59
2018-09-30T20:24:20.711Z,96554.73
2018-09-30T20:26:47.962Z,96544.97
2018-09-30T20:29:15.212Z,96541.48
2018-09-30T20:31:42.476Z,96530.09
2018-09-30T20:34:09.665Z,96537.95
2018-09-30T20:36:36.852Z,96533.92
2018-09-30T20:39:05.204Z,96535.20
2018-09-30T20:41:32.677Z,96531.59
2018-09-30T20:43:59.840Z,96535.24
2018-09-30T20:46:27.080Z,96533.89
2018-09-30T20:48:54.286Z,96530.05
2018-09-30T20:51:21.446Z,96523.12
2018-09-30T20:53:48.641Z,96526.53
2018-09-30T20:56:15.820Z,96539.88
2018-09-30T20:58:42.980Z,96534.12
2018-09-30T21:01:10.202Z,96531.51
2018-09-30T21:03:37.449Z,96528.00
2018-09-30T21:06:36.678Z,96521.42
2018-09-30T21:09:07.033Z,96521.70
2018-09-30T21:11:34.209Z,96523.16
2018-09-30T21:14:01.451Z,96526.01
2018-09-30T21:16:28.753Z,96528.15
2018-09-30T21:18:56.009Z,96526.86
2018-09-30T21:21:23.212Z,96521.17
2018-09-30T21:23:50.517Z,96521.36
2018-09-30T21:26:17.761Z,96520.42
2018-09-30T21:28:45.036Z,96523.23
2018-09-30T21:31:12.237Z,96533.58
2018-09-30T21:33:39.460Z,96527.66
2018-09-30T21:36:06.675Z,96525.63
2018-09-30T21:38:33.940Z,96525.42
2018-09-30T21:41:01.138Z,96520.45
2018-09-30T21:43:28.313Z,96524.84
2018-09-30T21:45:55.547Z,96519.95
2018-09-30T21:48:22.763Z,96512.64
2018-09-30T21:50:50.007Z,96515.34
2018-09-30T21:53:17.665Z,96517.97
2018-09-30T21:55:44.935Z,96521.66
2018-09-30T21:58:12.176Z,96507.98
2018-09-30T22:00:41.408Z,96513.25
2018-09-30T22:03:10.177Z,96515.40
2018-09-30T22:05:37.608Z,96510.79
2018-09-30T22:08:05.914Z,96517.32
2018-09-30T22:10:33.112Z,96509.67
2018-09-30T22:13:00.348Z,96504.34
2018-09-30T22:15:27.569Z,96500.50
2018-09-30T22:17:55.008Z,96501.07
2018-09-30T22:20:22.171Z,96498.92
2018-09-30T22:22:49.316Z,96498.62
2018-09-30T22:25:16.524Z,96501.84
2018-09-30T22:27:44.263Z,96495.41
2018-09-30T22:30:11.729Z,96484.41
2018-09-30T22:32:38.857Z,96484.27
2018-09-30T22:35:06.065Z,96476.50
2018-09-30T22:37:33.283Z,96480.91
2018-09-30T22:40:00.492Z,96479.85
2018-09-30T22:42:27.698Z,96483.05
2018-09-30T22:44:54.873Z,96480.51
2018-09-30T22:47:22.133Z,96477.30
2018-09-30T22:49:49.356Z,96472.96
2018-09-30T22:52:16.562Z,96467.38
2018-09-30T22:54:43.781Z,96468.41
2018-09-30T22:57:10.952Z,96471.08
2018-09-30T22:59:38.145Z,96468.66
2018-09-30T23:02:05.668Z,96476.54
2018-09-30T23:04:32.907Z,96474.45
2018-09-30T23:07:00.122Z,96469.05
2018-09-30T23:09:27.296Z,96475.85
2018-09-30T23:11:54.417Z,96479.75
2018-09-30T23:14:21.636Z,96479.06
2018-09-30T23:16:48.825Z,96475.85
2018-09-30T23:19:16.017Z,96476.56
2018-09-30T23:21:43.196Z,96474.48
2018-09-30T23:24:10.395Z,96471.08
2018-09-30T23:26:37.600Z,96470.32
2018-09-30T23:29:04.973Z,96469.84
2018-09-30T23:31:32.143Z,96469.88
2018-09-30T23:33:59.316Z,96472.34
2018-09-30T23:36:26.489Z,96468.05
2018-09-30T23:38:53.696Z,96471.00
2018-09-30T23:41:20.920Z,96465.19
2018-09-30T23:43:48.117Z,96459.92
2018-09-30T23:46:15.332Z,96458.72
2018-09-30T23:48:42.493Z,96447.95
2018-09-30T23:51:09.659Z,96453.25
2018-09-30T23:53:36.877Z,96445.94
2018-09-30T23:56:04.040Z,96440.25
2018-09-30T23:58:31.272Z,96441.70
